Startpagina
METAR-TAF:

METAR-TAF

Vliegvelden :

Cajamarca, Peru

breedte: 07-08S, lengte: 078-28W, hoogte: 2620 m

Actueel weer

Dit bericht is 32 minuten geleden gemaakt, om 21:30 UTC
Wind 7 kt uit het noordoosten, variërend tussen het noordnoordoosten en het oostzuidoosten
Temperatuur 18°C
Vochtigheid 45%
Druk 1026 hPa
Zicht 10 km of meer
Verspreide wolken op 1500 ft
Geheel bewolkt op 4300 ft

METAR: SPJR 182130Z 05007KT 020V110 9999 SCT015 OVC043 18/06 Q1026

Tijdstip: 17:02 (22:02 UTC)

Verwachting

Dit bericht is 5 uur en het 2 minuten geleden gemaakt, om 17:00 UTC
Verwachting geldig van 18 om 18 UTC tot 19 om 18 UTC
Wind 8 kt uit het noordoosten
Zicht 10 km of meer
Verspreide wolken op 3000 ft
Wijzigt naar
van 18 om 19 UTC tot 18 om 22 UTC
Verspreide wolken op 2300 ft
Gebroken wolken op 4300 ft

TAF: SPJR 181700Z 1818/1918 04008KT 9999 SCT030 TX21/1819Z TN04/1911Z BECMG 1819/1822 SCT023 BKN043

Waarnemingen en weersverwachtingen van meer dan 4000 vliegvelden (METAR en TAF).

De beschikbare stations zijn de gele en rode punten op de kaart.

Ga met uw muis naar het station om de naam te zien.

Klik dan om waarnemingen en weersverwachtingen te zien.

kaart wijzigen: klik op de groene knoppen met een zwart kruis om in te zoomen, op de groene knop met een streepje om uit te zoomen of op de groene pijlen voor aangrenzende kaarten.


METAR-TAF: